Nanjing Lukou International

Airport
ICAO code: 
ZSNJ
Summary
ICAO Region: 
APAC
Territory: 
Location: 
Nanjing, Jiangsu,
Coordinates: 
Aerial View: 
31° 44' 31.999" N, 118° 51' 42.998" E
Metar
Observation
ZSNJ 020900Z 26003MPS CAVOK 08/M04 Q1022 NOSIG
Station
Nanjing
Date/Time
2021-12-02 09:00:00
Wind direction
260°
Lowest cloud amount
clouds and visibility OK
Temperature
8°C
Dew point
-4°C
Humidity
42%
QNH
1022 hPa
Weather condition
n/a

Description

Nanjing Lukou International Airport is the main airport of Nanjing, the capital of China's Jiangsu province. The airport is located in the suburban Jiangning District, over 35 km to the south from Nanjing's downtown area.

Climatology

Nanjing has a humid subtropical climate (Köppen climate classification Cfa) and is under the influence of the East Asia Monsoon. The four seasons are distinct here, with damp conditions seen throughout the year, very hot and muggy summers, cold, damp winters, and in between, spring and autumn are of reasonable length.

Runways

Designator Length Width Surface Rops
6/24 3600 45 CON Yes/Yes
Airport map: 
Aerial View: 

SKYbrary Partners:

Safety knowledge contributed by: